createdAt,value
2019-03-26T00:01:57.943Z,38.30
2019-03-26T00:05:04.379Z,38.20
2019-03-26T00:08:10.644Z,38.00
2019-03-26T00:11:16.899Z,38.00
2019-03-26T00:14:23.167Z,38.10
2019-03-26T00:17:29.492Z,38.10
2019-03-26T00:20:35.724Z,38.00
2019-03-26T00:23:41.967Z,37.90
2019-03-26T00:26:48.272Z,37.80
2019-03-26T00:29:54.507Z,37.60
2019-03-26T00:33:00.888Z,37.60
2019-03-26T00:36:07.139Z,37.50
2019-03-26T00:39:14.331Z,37.50
2019-03-26T00:42:20.635Z,37.40
2019-03-26T00:45:26.880Z,37.30
2019-03-26T00:48:33.151Z,37.20
2019-03-26T00:51:40.983Z,37.20
2019-03-26T00:54:47.222Z,37.20
2019-03-26T00:57:53.522Z,37.20
2019-03-26T01:00:59.753Z,37.20
2019-03-26T01:04:06.207Z,37.10
2019-03-26T01:07:12.519Z,37.10
2019-03-26T01:10:27.976Z,37.00
2019-03-26T01:13:34.384Z,37.00
2019-03-26T01:16:40.630Z,37.00
2019-03-26T01:19:46.959Z,37.00
2019-03-26T01:22:53.354Z,36.90
2019-03-26T01:25:59.719Z,36.70
2019-03-26T01:29:06.026Z,36.70
2019-03-26T01:32:12.287Z,36.70
2019-03-26T01:35:18.547Z,36.70
2019-03-26T01:38:24.768Z,37.30
2019-03-26T01:41:31.074Z,36.60
2019-03-26T01:44:37.323Z,36.60
2019-03-26T01:47:43.742Z,36.60
2019-03-26T01:50:50.447Z,36.50
2019-03-26T01:53:58.488Z,36.50
2019-03-26T01:57:04.871Z,36.50
2019-03-26T02:00:11.399Z,37.40
2019-03-26T02:03:17.735Z,36.90
2019-03-26T02:06:24.039Z,37.20
2019-03-26T02:09:30.351Z,36.80
2019-03-26T02:12:37.739Z,36.70
2019-03-26T02:15:43.972Z,36.70
2019-03-26T02:18:50.252Z,36.70
2019-03-26T02:21:56.512Z,36.40
2019-03-26T02:25:02.793Z,36.50
2019-03-26T02:28:09.164Z,36.30
2019-03-26T02:31:15.433Z,36.30
2019-03-26T02:34:21.800Z,36.20
2019-03-26T02:37:28.976Z,36.30
2019-03-26T02:40:35.244Z,36.40
2019-03-26T02:43:41.506Z,36.10
2019-03-26T02:46:47.777Z,36.20
2019-03-26T02:49:54.123Z,36.10
2019-03-26T02:53:00.327Z,36.10
2019-03-26T02:56:06.577Z,36.30
2019-03-26T02:59:12.850Z,36.30
2019-03-26T03:02:19.109Z,36.40
2019-03-26T03:05:35.196Z,36.50
2019-03-26T03:08:34.300Z,36.40
2019-03-26T03:11:40.569Z,36.40
2019-03-26T03:14:46.952Z,36.40
2019-03-26T03:17:53.234Z,36.40
2019-03-26T03:20:59.800Z,36.30
2019-03-26T03:24:06.054Z,36.30
2019-03-26T03:27:12.322Z,36.20
2019-03-26T03:30:18.693Z,36.20
2019-03-26T03:33:24.978Z,36.30
2019-03-26T03:36:31.299Z,36.30
2019-03-26T03:39:37.510Z,36.90
2019-03-26T03:42:44.292Z,36.40
2019-03-26T03:45:50.576Z,36.30
2019-03-26T03:48:57.412Z,36.40
2019-03-26T03:52:04.924Z,36.30
2019-03-26T03:55:11.851Z,36.20
2019-03-26T03:58:19.723Z,36.20
2019-03-26T04:01:26.017Z,36.20
2019-03-26T04:04:32.223Z,36.10
2019-03-26T04:07:38.497Z,36.10
2019-03-26T04:10:44.880Z,36.20
2019-03-26T04:13:51.150Z,36.20
2019-03-26T04:16:57.462Z,36.20
2019-03-26T04:20:03.774Z,36.30
2019-03-26T04:23:10.044Z,36.20
2019-03-26T04:26:16.299Z,36.20
2019-03-26T04:29:22.603Z,36.20
2019-03-26T04:32:28.877Z,36.10
2019-03-26T04:35:35.159Z,36.10
2019-03-26T04:38:41.372Z,36.20
2019-03-26T04:41:47.661Z,36.20
2019-03-26T04:44:53.976Z,36.30
2019-03-26T04:48:00.187Z,36.20
2019-03-26T04:51:06.471Z,36.20
2019-03-26T04:54:12.713Z,36.20
2019-03-26T04:57:18.967Z,36.30
2019-03-26T05:00:25.475Z,36.30
2019-03-26T05:03:33.436Z,36.40
2019-03-26T05:06:39.877Z,36.70
2019-03-26T05:09:46.104Z,37.00
2019-03-26T05:12:52.361Z,36.70
2019-03-26T05:15:58.647Z,37.00
2019-03-26T05:19:04.978Z,37.00
2019-03-26T05:22:23.271Z,36.90
2019-03-26T05:25:19.512Z,36.90
2019-03-26T05:28:25.857Z,36.80
2019-03-26T05:31:32.124Z,36.80
2019-03-26T05:34:38.368Z,37.50
2019-03-26T05:37:44.668Z,37.50
2019-03-26T05:40:50.931Z,37.50
2019-03-26T05:43:57.180Z,37.50
2019-03-26T05:47:03.486Z,37.60
2019-03-26T05:50:11.249Z,37.70
2019-03-26T05:53:17.556Z,37.70
2019-03-26T05:56:23.823Z,37.80
2019-03-26T05:59:30.152Z,38.60
2019-03-26T06:02:36.463Z,38.10
2019-03-26T06:05:42.689Z,38.00
2019-03-26T06:08:48.940Z,38.10
2019-03-26T06:11:55.204Z,38.00
2019-03-26T06:15:01.472Z,38.00
2019-03-26T06:18:07.740Z,38.00
2019-03-26T06:21:14.002Z,37.90
2019-03-26T06:24:20.276Z,37.80
2019-03-26T06:27:26.673Z,37.80
2019-03-26T06:30:32.852Z,37.60
2019-03-26T06:33:39.076Z,37.50
2019-03-26T06:36:45.399Z,37.50
2019-03-26T06:39:51.736Z,37.50
2019-03-26T06:42:58.043Z,37.50
2019-03-26T06:46:04.252Z,37.50
2019-03-26T06:49:10.518Z,37.40
2019-03-26T06:52:16.791Z,37.40
2019-03-26T06:55:23.055Z,37.30
2019-03-26T06:58:29.311Z,37.30
2019-03-26T07:01:35.583Z,37.30
2019-03-26T07:04:51.077Z,37.40
2019-03-26T07:07:59.152Z,37.30
2019-03-26T07:11:05.443Z,37.30
2019-03-26T07:14:11.812Z,37.20
2019-03-26T07:17:18.111Z,37.20
2019-03-26T07:20:24.382Z,37.20
2019-03-26T07:23:30.619Z,37.10
2019-03-26T07:26:36.879Z,37.10
2019-03-26T07:29:43.151Z,37.20
2019-03-26T07:32:49.513Z,37.10
2019-03-26T07:35:55.691Z,37.10
2019-03-26T07:39:01.950Z,37.10
2019-03-26T07:42:08.341Z,37.20
2019-03-26T07:45:15.171Z,37.60
2019-03-26T07:48:22.963Z,37.10
2019-03-26T07:51:29.215Z,37.10
2019-03-26T07:54:35.460Z,37.10
2019-03-26T07:57:42.728Z,37.00
2019-03-26T08:00:48.991Z,36.90
2019-03-26T08:03:55.308Z,37.00
2019-03-26T08:07:02.455Z,36.90
2019-03-26T08:10:08.917Z,36.90
2019-03-26T08:13:15.139Z,36.90
2019-03-26T08:16:21.373Z,36.80
2019-03-26T08:19:27.676Z,36.80
2019-03-26T08:22:33.910Z,36.90
2019-03-26T08:25:40.177Z,36.70
2019-03-26T08:28:46.563Z,36.90
2019-03-26T08:31:52.804Z,36.90
2019-03-26T08:35:00.360Z,35.60
2019-03-26T08:38:12.453Z,35.50
2019-03-26T08:41:14.491Z,35.80
2019-03-26T08:44:20.761Z,36.20
2019-03-26T08:47:26.892Z,36.60
2019-03-26T08:50:33.323Z,36.60
2019-03-26T08:53:39.547Z,36.60
2019-03-26T08:56:45.815Z,36.70
2019-03-26T08:59:52.123Z,36.80
2019-03-26T09:02:58.333Z,36.90
2019-03-26T09:06:07.917Z,37.00
2019-03-26T09:09:14.179Z,37.10
2019-03-26T09:12:20.521Z,37.10
2019-03-26T09:15:26.928Z,37.30
2019-03-26T09:18:33.259Z,37.30
2019-03-26T09:21:39.662Z,37.50
2019-03-26T09:24:45.933Z,37.50
2019-03-26T09:27:52.526Z,37.60
2019-03-26T09:30:59.896Z,37.70
2019-03-26T09:34:06.127Z,37.80
2019-03-26T09:37:12.392Z,43.10
2019-03-26T09:40:19.680Z,45.40
2019-03-26T09:43:25.952Z,42.90
2019-03-26T09:46:32.236Z,41.30
2019-03-26T09:49:38.535Z,40.90
2019-03-26T09:52:44.771Z,40.70
2019-03-26T09:55:51.040Z,40.70
2019-03-26T09:58:57.367Z,40.60
2019-03-26T10:02:03.581Z,41.80
2019-03-26T10:05:10.915Z,43.40
2019-03-26T10:08:17.964Z,42.80
2019-03-26T10:11:24.433Z,43.00
2019-03-26T10:14:30.686Z,43.00
2019-03-26T10:17:36.856Z,43.10
2019-03-26T10:20:43.128Z,43.20
2019-03-26T10:23:49.384Z,43.00
2019-03-26T10:26:55.634Z,43.00
2019-03-26T10:30:01.944Z,42.90
2019-03-26T10:33:08.807Z,42.90
2019-03-26T10:36:15.156Z,42.80
2019-03-26T10:39:21.435Z,42.60
2019-03-26T10:42:27.691Z,42.50
2019-03-26T10:45:34.103Z,42.30
2019-03-26T10:48:40.443Z,42.20
2019-03-26T10:51:47.739Z,42.10
2019-03-26T10:54:54.012Z,42.00
2019-03-26T10:58:00.284Z,41.70
2019-03-26T11:01:06.563Z,41.70
2019-03-26T11:04:12.790Z,41.60
2019-03-26T11:07:19.051Z,41.50
2019-03-26T11:10:27.044Z,41.30
2019-03-26T11:13:33.423Z,41.30
2019-03-26T11:16:39.699Z,41.10
2019-03-26T11:19:46.534Z,41.00
2019-03-26T11:22:52.932Z,40.90
2019-03-26T11:25:59.260Z,40.90
2019-03-26T11:29:05.580Z,40.80
2019-03-26T11:32:11.836Z,40.70
2019-03-26T11:35:18.106Z,40.50
2019-03-26T11:38:24.409Z,40.50
2019-03-26T11:41:30.696Z,40.30
2019-03-26T11:44:36.911Z,40.30
2019-03-26T11:47:43.172Z,40.30
2019-03-26T11:50:49.476Z,40.20
2019-03-26T11:53:55.707Z,40.10
2019-03-26T11:57:02.022Z,40.00
2019-03-26T12:00:09.256Z,39.80
2019-03-26T12:03:16.759Z,39.90
2019-03-26T12:06:23.079Z,39.70
2019-03-26T12:09:29.395Z,39.70
2019-03-26T12:12:35.697Z,39.70
2019-03-26T12:15:41.928Z,39.60
2019-03-26T12:18:49.924Z,39.60
2019-03-26T12:21:56.158Z,39.60
2019-03-26T12:25:02.371Z,39.70
2019-03-26T12:28:08.636Z,40.00
2019-03-26T12:31:14.944Z,39.50
2019-03-26T12:34:21.292Z,39.50
2019-03-26T12:37:27.603Z,39.40
2019-03-26T12:40:33.824Z,39.30
2019-03-26T12:43:40.076Z,39.60
2019-03-26T12:46:46.382Z,39.30
2019-03-26T12:49:52.634Z,39.10
2019-03-26T12:52:58.931Z,39.10
2019-03-26T12:56:05.140Z,39.00
2019-03-26T12:59:11.311Z,39.00
2019-03-26T13:02:17.608Z,39.00
2019-03-26T13:05:23.839Z,38.80
2019-03-26T13:08:30.168Z,38.80
2019-03-26T13:11:36.419Z,38.80
2019-03-26T13:14:42.643Z,38.90
2019-03-26T13:17:48.944Z,38.90
2019-03-26T13:20:55.115Z,38.80
2019-03-26T13:24:01.380Z,38.80
2019-03-26T13:27:07.671Z,38.80
2019-03-26T13:30:14.283Z,38.80
2019-03-26T13:33:20.694Z,39.30
2019-03-26T13:36:26.924Z,38.60
2019-03-26T13:39:33.212Z,38.60
2019-03-26T13:42:39.699Z,38.60
2019-03-26T13:45:45.941Z,38.60
2019-03-26T13:48:52.236Z,38.50
2019-03-26T13:51:58.499Z,38.50
2019-03-26T13:55:04.855Z,38.50
2019-03-26T13:58:11.135Z,38.50
2019-03-26T14:01:17.380Z,38.50
2019-03-26T14:04:23.631Z,38.50
2019-03-26T14:07:29.800Z,38.40
2019-03-26T14:10:41.277Z,38.40
2019-03-26T14:13:45.720Z,38.40
2019-03-26T14:16:51.975Z,38.40
2019-03-26T14:19:58.248Z,38.30
2019-03-26T14:23:04.639Z,38.30
2019-03-26T14:26:10.890Z,38.20
2019-03-26T14:29:17.151Z,38.20
2019-03-26T14:32:23.459Z,38.20
2019-03-26T14:35:29.697Z,38.20
2019-03-26T14:38:35.970Z,38.20
2019-03-26T14:41:42.241Z,38.30
2019-03-26T14:44:50.107Z,38.10
2019-03-26T14:47:56.396Z,38.20
2019-03-26T14:51:03.688Z,38.20
2019-03-26T14:54:09.955Z,38.10
2019-03-26T14:57:16.239Z,38.10
2019-03-26T15:00:22.505Z,38.00
2019-03-26T15:03:28.757Z,38.00
2019-03-26T15:06:35.052Z,37.90
2019-03-26T15:09:41.412Z,38.00
2019-03-26T15:12:47.718Z,37.90
2019-03-26T15:15:54.028Z,37.90
2019-03-26T15:19:01.352Z,37.90
2019-03-26T15:22:07.583Z,37.80
2019-03-26T15:25:13.851Z,37.90
2019-03-26T15:28:20.115Z,37.90
2019-03-26T15:31:28.111Z,37.90
2019-03-26T15:34:36.293Z,38.60
2019-03-26T15:37:42.399Z,37.90
2019-03-26T15:40:48.567Z,37.90
2019-03-26T15:43:54.835Z,37.90
2019-03-26T15:47:01.127Z,37.90
2019-03-26T15:50:07.843Z,37.90
2019-03-26T15:53:14.616Z,37.80
2019-03-26T15:56:20.844Z,38.00
2019-03-26T15:59:27.135Z,37.90
2019-03-26T16:02:33.359Z,37.80
2019-03-26T16:05:39.664Z,37.80
2019-03-26T16:08:45.911Z,37.70
2019-03-26T16:11:52.185Z,37.70
2019-03-26T16:14:58.484Z,37.60
2019-03-26T16:18:04.696Z,37.60
2019-03-26T16:21:10.999Z,37.60
2019-03-26T16:24:17.232Z,37.60
2019-03-26T16:27:23.519Z,37.60
2019-03-26T16:30:30.824Z,37.60
2019-03-26T16:33:37.380Z,37.60
2019-03-26T16:36:43.673Z,37.50
2019-03-26T16:39:49.900Z,37.40
2019-03-26T16:42:56.184Z,37.40
2019-03-26T16:46:02.464Z,37.40
2019-03-26T16:49:08.711Z,37.40
2019-03-26T16:52:14.998Z,37.40
2019-03-26T16:55:21.564Z,37.40
2019-03-26T16:58:28.833Z,37.40
2019-03-26T17:01:35.132Z,37.50
2019-03-26T17:04:41.497Z,37.40
2019-03-26T17:07:48.903Z,37.30
2019-03-26T17:10:55.396Z,37.40
2019-03-26T17:14:01.632Z,37.30
2019-03-26T17:17:07.932Z,37.20
2019-03-26T17:20:14.472Z,37.20
2019-03-26T17:23:20.798Z,37.20
2019-03-26T17:26:27.156Z,37.10
2019-03-26T17:29:33.368Z,36.80
2019-03-26T17:32:39.576Z,37.10
2019-03-26T17:35:45.766Z,37.10
2019-03-26T17:38:52.000Z,37.20
2019-03-26T17:41:58.260Z,37.20
2019-03-26T17:45:04.703Z,37.10
2019-03-26T17:48:10.875Z,37.00
2019-03-26T17:51:17.039Z,37.10
2019-03-26T17:54:23.311Z,36.90
2019-03-26T17:57:29.595Z,37.00
2019-03-26T18:00:44.408Z,36.90
2019-03-26T18:03:50.659Z,37.00
2019-03-26T18:06:56.908Z,36.50
2019-03-26T18:10:03.167Z,36.50
2019-03-26T18:13:09.407Z,36.60
2019-03-26T18:16:15.862Z,36.60
2019-03-26T18:19:23.183Z,36.80
2019-03-26T18:22:29.335Z,36.70
2019-03-26T18:25:35.607Z,37.10
2019-03-26T18:28:41.898Z,37.30
2019-03-26T18:31:48.159Z,37.40
2019-03-26T18:34:54.436Z,37.60
2019-03-26T18:38:00.714Z,37.70
2019-03-26T18:41:06.953Z,37.70
2019-03-26T18:44:13.305Z,37.70
2019-03-26T18:47:21.408Z,37.70
2019-03-26T18:50:27.633Z,37.70
2019-03-26T18:53:33.996Z,37.70
2019-03-26T18:56:40.231Z,38.00
2019-03-26T18:59:46.489Z,38.20
2019-03-26T19:02:52.753Z,38.30
2019-03-26T19:05:59.091Z,38.40
2019-03-26T19:13:40.564Z,38.30
2019-03-26T19:16:46.842Z,38.20
2019-03-26T19:19:53.116Z,38.20
2019-03-26T19:22:59.547Z,38.10
2019-03-26T19:26:08.282Z,37.80
2019-03-26T19:29:14.600Z,36.90
2019-03-26T19:32:21.010Z,36.80
2019-03-26T19:35:27.547Z,37.40
2019-03-26T19:38:33.776Z,37.70
2019-03-26T19:41:41.063Z,38.30
2019-03-26T19:44:47.451Z,38.40
2019-03-26T19:47:53.680Z,38.50
2019-03-26T19:51:00.951Z,38.60
2019-03-26T19:54:10.252Z,38.70
2019-03-26T19:57:16.481Z,38.60
2019-03-26T20:00:22.775Z,38.60
2019-03-26T20:03:30.056Z,38.60
2019-03-26T20:06:36.559Z,38.60
2019-03-26T20:09:42.914Z,38.60
2019-03-26T20:12:50.085Z,38.60
2019-03-26T20:15:56.380Z,38.60
2019-03-26T20:19:02.695Z,38.50
2019-03-26T20:22:09.928Z,38.40
2019-03-26T20:25:16.567Z,38.40
2019-03-26T20:28:26.908Z,38.40
2019-03-26T20:31:34.345Z,38.40
2019-03-26T20:34:40.639Z,38.40
2019-03-26T20:37:46.884Z,38.30
2019-03-26T20:41:05.011Z,38.00
2019-03-26T20:44:11.268Z,38.00
2019-03-26T20:47:17.543Z,38.00
2019-03-26T20:50:23.927Z,37.70
2019-03-26T20:53:30.275Z,37.50
2019-03-26T20:57:05.012Z,37.50
2019-03-26T21:00:15.141Z,37.30
2019-03-26T21:03:21.558Z,37.20
2019-03-26T21:06:27.804Z,37.80
2019-03-26T21:09:34.079Z,37.70
2019-03-26T21:12:40.345Z,37.70
2019-03-26T21:15:56.641Z,37.80
2019-03-26T21:18:54.621Z,37.70
2019-03-26T21:22:00.925Z,37.70
2019-03-26T21:25:07.904Z,37.70
2019-03-26T21:28:16.660Z,37.60
2019-03-26T21:31:29.856Z,37.70
2019-03-26T21:34:37.800Z,37.70
2019-03-26T21:38:00.514Z,37.70
2019-03-26T21:41:29.982Z,37.50
2019-03-26T21:44:37.719Z,37.60
2019-03-26T21:47:44.020Z,37.50
2019-03-26T21:50:50.335Z,37.50
2019-03-26T21:53:56.599Z,36.90
2019-03-26T21:57:02.911Z,37.50
2019-03-26T22:00:10.323Z,37.30
2019-03-26T22:03:17.957Z,37.20
2019-03-26T22:06:24.140Z,37.10
2019-03-26T22:09:30.415Z,37.00
2019-03-26T22:12:36.706Z,36.90
2019-03-26T22:15:42.943Z,36.70
2019-03-26T22:18:49.227Z,35.80
2019-03-26T22:21:55.598Z,36.50
2019-03-26T22:25:02.151Z,37.10
2019-03-26T22:28:08.464Z,37.70
2019-03-26T22:31:14.723Z,37.80
2019-03-26T22:34:21.095Z,37.90
2019-03-26T22:37:27.343Z,37.80
2019-03-26T22:40:33.575Z,37.70
2019-03-26T22:43:39.899Z,37.60
2019-03-26T22:46:46.215Z,37.60
2019-03-26T22:49:52.522Z,37.60
2019-03-26T22:52:58.783Z,37.50
2019-03-26T22:56:05.011Z,37.30
2019-03-26T22:59:11.283Z,37.20
2019-03-26T23:02:17.543Z,37.10
2019-03-26T23:05:23.840Z,37.00
2019-03-26T23:08:30.107Z,37.00
2019-03-26T23:11:36.355Z,37.00
2019-03-26T23:14:45.438Z,37.00
2019-03-26T23:17:52.272Z,36.90
2019-03-26T23:20:58.537Z,37.50
2019-03-26T23:24:05.928Z,36.60
2019-03-26T23:27:12.167Z,36.60
2019-03-26T23:30:18.885Z,36.50
2019-03-26T23:33:25.241Z,36.40
2019-03-26T23:36:31.490Z,36.20
2019-03-26T23:39:37.751Z,36.10
2019-03-26T23:42:44.019Z,36.10
2019-03-26T23:45:50.311Z,36.00
2019-03-26T23:48:56.575Z,35.90
2019-03-26T23:52:02.843Z,35.80
2019-03-26T23:55:11.059Z,35.80
2019-03-26T23:58:17.424Z,35.60
